createdAt,value
2019-02-23T00:00:51.093Z,4.40
2019-02-23T00:01:51.145Z,4.60
2019-02-23T00:02:51.809Z,6.90
2019-02-23T00:03:51.247Z,7.30
2019-02-23T00:04:51.661Z,7.50
2019-02-23T00:05:51.359Z,6.20
2019-02-23T00:06:51.403Z,6.40
2019-02-23T00:07:51.456Z,5.50
2019-02-23T00:08:51.506Z,7.20
2019-02-23T00:09:51.558Z,8.10
2019-02-23T00:10:51.763Z,7.80
2019-02-23T00:11:51.664Z,7.30
2019-02-23T00:12:51.715Z,7.10
2019-02-23T00:13:51.766Z,7.90
2019-02-23T00:14:51.818Z,7.10
2019-02-23T00:15:51.870Z,7.40
2019-02-23T00:16:51.922Z,8.70
2019-02-23T00:17:51.973Z,9.40
2019-02-23T00:18:52.027Z,9.20
2019-02-23T00:19:52.080Z,8.20
2019-02-23T00:20:52.131Z,7.90
2019-02-23T00:21:52.186Z,8.10
2019-02-23T00:22:52.233Z,7.10
2019-02-23T00:23:52.286Z,7.40
2019-02-23T00:24:52.338Z,6.80
2019-02-23T00:25:52.390Z,6.20
2019-02-23T00:26:52.442Z,5.90
2019-02-23T00:27:52.492Z,6.20
2019-02-23T00:28:52.545Z,6.20
2019-02-23T00:29:52.598Z,6.00
2019-02-23T00:30:52.649Z,5.90
2019-02-23T00:31:52.700Z,5.30
2019-02-23T00:32:52.753Z,5.50
2019-02-23T00:33:52.803Z,5.00
2019-02-23T00:34:52.855Z,5.00
2019-02-23T00:35:52.909Z,5.10
2019-02-23T00:36:52.961Z,6.00
2019-02-23T00:37:53.010Z,5.40
2019-02-23T00:38:53.062Z,5.20
2019-02-23T00:39:53.114Z,5.30
2019-02-23T00:40:53.167Z,4.60
2019-02-23T00:41:53.219Z,4.70
2019-02-23T00:42:53.269Z,4.40
2019-02-23T00:43:53.321Z,4.60
2019-02-23T00:44:53.373Z,5.30
2019-02-23T00:45:53.425Z,4.70
2019-02-23T00:46:53.477Z,4.70
2019-02-23T00:47:53.528Z,4.60
2019-02-23T00:48:53.582Z,4.70
2019-02-23T00:49:53.632Z,4.80
2019-02-23T00:50:53.687Z,4.20
2019-02-23T00:51:53.735Z,5.00
2019-02-23T00:52:53.788Z,4.30
2019-02-23T00:53:53.841Z,4.50
2019-02-23T00:54:53.890Z,4.30
2019-02-23T00:55:53.942Z,4.10
2019-02-23T00:56:54.003Z,3.90
2019-02-23T00:57:54.046Z,4.20
2019-02-23T00:58:54.097Z,4.50
2019-02-23T00:59:54.149Z,4.30
2019-02-23T01:00:54.200Z,4.40
2019-02-23T01:01:54.252Z,4.00
2019-02-23T01:02:54.304Z,4.20
2019-02-23T01:03:54.358Z,3.90
2019-02-23T01:04:54.408Z,4.40
2019-02-23T01:05:54.462Z,4.70
2019-02-23T01:06:54.511Z,3.90
2019-02-23T01:07:54.562Z,4.20
2019-02-23T01:08:54.613Z,3.80
2019-02-23T01:09:54.665Z,4.20
2019-02-23T01:10:58.122Z,4.50
2019-02-23T01:11:54.768Z,3.90
2019-02-23T01:12:54.823Z,4.60
2019-02-23T01:13:54.872Z,4.60
2019-02-23T01:14:54.923Z,4.50
2019-02-23T01:15:54.974Z,4.90
2019-02-23T01:16:55.028Z,4.60
2019-02-23T01:17:55.078Z,4.20
2019-02-23T01:18:55.129Z,4.60
2019-02-23T01:19:55.180Z,4.30
2019-02-23T01:20:55.233Z,4.00
2019-02-23T01:21:55.283Z,3.80
2019-02-23T01:22:55.336Z,4.30
2019-02-23T01:23:55.387Z,4.30
2019-02-23T01:24:55.439Z,4.00
2019-02-23T01:25:55.490Z,4.10
2019-02-23T01:26:55.559Z,4.40
2019-02-23T01:27:55.593Z,3.60
2019-02-23T01:28:55.643Z,4.10
2019-02-23T01:29:55.695Z,3.40
2019-02-23T01:30:55.746Z,4.00
2019-02-23T01:31:55.879Z,3.80
2019-02-23T01:32:55.850Z,4.40
2019-02-23T01:33:55.901Z,4.30
2019-02-23T01:34:55.951Z,3.90
2019-02-23T01:35:56.004Z,3.70
2019-02-23T01:36:56.061Z,4.30
2019-02-23T01:37:56.104Z,4.00
2019-02-23T01:38:56.158Z,4.60
2019-02-23T01:39:56.210Z,4.10
2019-02-23T01:40:56.263Z,3.90
2019-02-23T01:41:56.313Z,4.90
2019-02-23T01:42:56.362Z,5.10
2019-02-23T01:43:56.414Z,5.00
2019-02-23T01:44:56.465Z,5.00
2019-02-23T01:45:56.520Z,4.40
2019-02-23T01:46:56.569Z,5.20
2019-02-23T01:47:56.624Z,4.60
2019-02-23T01:48:56.672Z,5.20
2019-02-23T01:49:59.220Z,4.30
2019-02-23T01:50:56.775Z,4.10
2019-02-23T01:51:56.825Z,4.20
2019-02-23T01:52:56.877Z,4.80
2019-02-23T01:53:56.928Z,4.80
2019-02-23T01:54:56.979Z,4.10
2019-02-23T01:55:57.033Z,3.90
2019-02-23T01:56:57.082Z,4.70
2019-02-23T01:57:57.132Z,4.20
2019-02-23T01:58:57.185Z,5.10
2019-02-23T01:59:57.236Z,4.80
2019-02-23T02:00:57.288Z,4.40
2019-02-23T02:01:57.337Z,4.40
2019-02-23T02:02:57.392Z,4.20
2019-02-23T02:03:57.440Z,4.70
2019-02-23T02:04:57.493Z,4.50
2019-02-23T02:05:57.541Z,4.40
2019-02-23T02:06:57.593Z,3.80
2019-02-23T02:07:57.646Z,4.60
2019-02-23T02:08:57.697Z,4.80
2019-02-23T02:09:57.746Z,4.10
2019-02-23T02:10:57.799Z,4.40
2019-02-23T02:11:57.850Z,4.20
2019-02-23T02:12:57.901Z,4.90
2019-02-23T02:13:57.951Z,4.50
2019-02-23T02:14:58.003Z,4.60
2019-02-23T02:15:58.053Z,4.30
2019-02-23T02:16:58.110Z,4.40
2019-02-23T02:17:58.154Z,4.10
2019-02-23T02:18:58.207Z,4.80
2019-02-23T02:19:58.259Z,4.70
2019-02-23T02:20:58.317Z,4.80
2019-02-23T02:21:58.358Z,4.50
2019-02-23T02:22:58.411Z,4.20
2019-02-23T02:23:58.463Z,4.70
2019-02-23T02:24:58.517Z,5.40
2019-02-23T02:25:58.564Z,4.60
2019-02-23T02:26:58.613Z,5.00
2019-02-23T02:27:58.669Z,5.50
2019-02-23T02:28:58.720Z,4.50
2019-02-23T02:29:58.766Z,4.80
2019-02-23T02:30:58.818Z,4.80
2019-02-23T02:31:58.870Z,4.10
2019-02-23T02:32:58.921Z,4.60
2019-02-23T02:33:58.970Z,4.90
2019-02-23T02:34:59.023Z,5.30
2019-02-23T02:35:59.075Z,4.70
2019-02-23T02:36:59.123Z,4.80
2019-02-23T02:37:59.174Z,4.50
2019-02-23T02:38:59.227Z,5.50
2019-02-23T02:39:59.278Z,4.80
2019-02-23T02:40:59.329Z,4.60
2019-02-23T02:41:59.378Z,4.40
2019-02-23T02:42:59.431Z,4.10
2019-02-23T02:43:59.480Z,5.40
2019-02-23T02:44:59.530Z,4.90
2019-02-23T02:45:59.590Z,5.40
2019-02-23T02:46:59.634Z,4.90
2019-02-23T02:47:59.685Z,4.20
2019-02-23T02:48:59.740Z,6.00
2019-02-23T02:49:59.790Z,5.40
2019-02-23T02:50:59.836Z,5.20
2019-02-23T02:51:59.890Z,4.30
2019-02-23T02:52:59.939Z,4.80
2019-02-23T02:53:59.988Z,4.20
2019-02-23T02:55:00.039Z,4.50
2019-02-23T02:56:00.091Z,4.20
2019-02-23T02:57:00.145Z,4.90
2019-02-23T02:58:00.191Z,4.80
2019-02-23T02:59:00.244Z,4.60
2019-02-23T03:00:00.503Z,5.00
2019-02-23T03:01:00.345Z,4.70
2019-02-23T03:02:00.398Z,4.50
2019-02-23T03:03:00.446Z,4.70
2019-02-23T03:04:00.538Z,4.80
2019-02-23T03:05:00.588Z,4.60
2019-02-23T03:06:00.598Z,4.10
2019-02-23T03:07:00.649Z,4.20
2019-02-23T03:08:00.702Z,4.00
2019-02-23T03:09:00.753Z,4.70
2019-02-23T03:10:00.802Z,4.40
2019-02-23T03:11:00.853Z,4.50
2019-02-23T03:12:00.904Z,4.00
2019-02-23T03:13:00.955Z,4.40
2019-02-23T03:14:01.005Z,3.50
2019-02-23T03:15:01.056Z,4.50
2019-02-23T03:16:01.109Z,4.10
2019-02-23T03:17:01.709Z,4.60
2019-02-23T03:18:01.207Z,4.60
2019-02-23T03:19:01.257Z,4.10
2019-02-23T03:20:01.309Z,4.70
2019-02-23T03:21:01.363Z,4.20
2019-02-23T03:22:01.411Z,4.40
2019-02-23T03:23:01.463Z,4.50
2019-02-23T03:24:01.511Z,4.40
2019-02-23T03:25:01.567Z,4.50
2019-02-23T03:26:01.612Z,4.50
2019-02-23T03:27:01.669Z,4.30
2019-02-23T03:28:01.714Z,4.30
2019-02-23T03:29:01.766Z,4.70
2019-02-23T03:30:01.871Z,4.90
2019-02-23T03:31:01.870Z,3.70
2019-02-23T03:32:01.917Z,4.40
2019-02-23T03:33:01.991Z,4.10
2019-02-23T03:34:02.019Z,4.70
2019-02-23T03:35:02.069Z,3.80
2019-02-23T03:36:02.118Z,3.90
2019-02-23T03:37:02.168Z,4.50
2019-02-23T03:38:02.232Z,5.10
2019-02-23T03:39:02.270Z,4.40
2019-02-23T03:40:02.322Z,4.40
2019-02-23T03:41:02.373Z,4.20
2019-02-23T03:42:02.421Z,4.80
2019-02-23T03:43:02.473Z,4.50
2019-02-23T03:44:02.524Z,4.30
2019-02-23T03:45:02.574Z,4.40
2019-02-23T03:46:02.624Z,3.70
2019-02-23T03:47:02.676Z,4.50
2019-02-23T03:48:02.728Z,4.20
2019-02-23T03:49:02.777Z,4.60
2019-02-23T03:50:02.827Z,4.10
2019-02-23T03:51:02.877Z,4.20
2019-02-23T03:52:02.928Z,4.20
2019-02-23T03:53:02.978Z,3.90
2019-02-23T03:54:03.028Z,4.50
2019-02-23T03:55:03.080Z,5.00
2019-02-23T03:56:03.130Z,4.70
2019-02-23T03:57:03.181Z,5.90
2019-02-23T03:58:03.230Z,5.40
2019-02-23T03:59:03.280Z,5.00
2019-02-23T04:00:03.331Z,4.30
2019-02-23T04:01:03.382Z,4.80
2019-02-23T04:02:03.431Z,4.80
2019-02-23T04:03:03.497Z,4.40
2019-02-23T04:04:03.533Z,4.40
2019-02-23T04:05:03.583Z,4.00
2019-02-23T04:06:03.633Z,4.50
2019-02-23T04:07:03.684Z,4.80
2019-02-23T04:08:03.734Z,4.90
2019-02-23T04:09:03.790Z,4.30
2019-02-23T04:10:03.837Z,4.50
2019-02-23T04:11:03.888Z,4.80
2019-02-23T04:12:03.938Z,4.50
2019-02-23T04:13:03.994Z,4.40
2019-02-23T04:14:04.038Z,4.70
2019-02-23T04:15:04.090Z,4.50
2019-02-23T04:16:04.140Z,4.30
2019-02-23T04:17:04.191Z,4.90
2019-02-23T04:18:04.240Z,4.90
2019-02-23T04:19:04.293Z,4.50
2019-02-23T04:20:04.343Z,5.50
2019-02-23T04:21:04.393Z,5.10
2019-02-23T04:22:04.445Z,6.10
2019-02-23T04:23:04.495Z,5.50
2019-02-23T04:24:04.545Z,5.10
2019-02-23T04:25:04.595Z,5.60
2019-02-23T04:26:04.646Z,4.80
2019-02-23T04:27:04.701Z,4.20
2019-02-23T04:28:04.747Z,5.20
2019-02-23T04:29:04.799Z,5.00
2019-02-23T04:30:04.850Z,4.50
2019-02-23T04:31:04.903Z,5.00
2019-02-23T04:32:04.959Z,5.70
2019-02-23T04:33:05.009Z,5.40
2019-02-23T04:34:05.054Z,5.50
2019-02-23T04:35:05.105Z,5.30
2019-02-23T04:36:05.161Z,5.40
2019-02-23T04:37:05.209Z,4.70
2019-02-23T04:38:05.257Z,5.30
2019-02-23T04:39:05.317Z,5.00
2019-02-23T04:40:05.363Z,5.80
2019-02-23T04:41:05.412Z,6.10
2019-02-23T04:42:05.461Z,6.30
2019-02-23T04:43:05.516Z,5.50
2019-02-23T04:44:05.569Z,6.60
2019-02-23T04:45:05.616Z,6.00
2019-02-23T04:46:06.028Z,6.00
2019-02-23T04:47:05.718Z,6.40
2019-02-23T04:48:05.768Z,5.10
2019-02-23T04:49:05.822Z,5.70
2019-02-23T04:50:05.871Z,5.10
2019-02-23T04:51:14.501Z,5.60
2019-02-23T04:52:05.973Z,5.00
2019-02-23T04:53:06.029Z,5.40
2019-02-23T04:54:06.075Z,6.10
2019-02-23T04:55:06.129Z,5.30
2019-02-23T04:56:06.178Z,5.10
2019-02-23T04:57:06.230Z,4.80
2019-02-23T04:58:06.281Z,5.70
2019-02-23T04:59:06.335Z,5.00
2019-02-23T05:00:06.386Z,4.50
2019-02-23T05:01:06.467Z,4.50
2019-02-23T05:02:06.498Z,4.20
2019-02-23T05:03:06.536Z,4.90
2019-02-23T05:04:06.588Z,4.50
2019-02-23T05:05:06.640Z,4.80
2019-02-23T05:06:06.691Z,5.00
2019-02-23T05:07:06.742Z,4.80
2019-02-23T05:08:06.838Z,5.10
2019-02-23T05:09:06.844Z,5.80
2019-02-23T05:10:06.895Z,5.30
2019-02-23T05:11:06.947Z,5.80
2019-02-23T05:12:07.001Z,5.90
2019-02-23T05:13:07.053Z,5.10
2019-02-23T05:14:07.112Z,5.00
2019-02-23T05:15:07.155Z,4.70
2019-02-23T05:16:07.205Z,5.70
2019-02-23T05:17:07.256Z,5.20
2019-02-23T05:18:07.306Z,5.20
2019-02-23T05:19:07.358Z,5.10
2019-02-23T05:20:07.410Z,5.50
2019-02-23T05:21:07.460Z,5.20
2019-02-23T05:22:07.511Z,5.20
2019-02-23T05:23:07.563Z,5.60
2019-02-23T05:24:07.616Z,5.50
2019-02-23T05:25:07.667Z,5.10
2019-02-23T05:26:07.718Z,4.70
2019-02-23T05:27:07.768Z,5.40
2019-02-23T05:28:07.826Z,5.30
2019-02-23T05:29:07.873Z,5.40
2019-02-23T05:30:07.924Z,4.90
2019-02-23T05:31:07.974Z,5.80
2019-02-23T05:32:08.027Z,5.40
2019-02-23T05:33:08.080Z,5.80
2019-02-23T05:34:08.129Z,6.00
2019-02-23T05:35:08.182Z,5.00
2019-02-23T05:36:08.231Z,5.70
2019-02-23T05:37:08.284Z,6.30
2019-02-23T05:38:08.335Z,5.60
2019-02-23T05:39:08.387Z,5.90
2019-02-23T05:40:08.438Z,5.30
2019-02-23T05:41:08.491Z,5.90
2019-02-23T05:42:08.543Z,5.60
2019-02-23T05:43:08.594Z,6.10
2019-02-23T05:44:08.645Z,5.10
2019-02-23T05:45:08.727Z,4.90
2019-02-23T05:46:08.747Z,5.90
2019-02-23T05:47:08.799Z,5.20
2019-02-23T05:48:08.851Z,5.90
2019-02-23T05:49:08.904Z,6.00
2019-02-23T05:50:08.955Z,5.50
2019-02-23T05:51:09.006Z,5.80
2019-02-23T05:52:09.057Z,5.80
2019-02-23T05:53:09.112Z,5.30
2019-02-23T05:54:09.161Z,5.90
2019-02-23T05:55:09.617Z,5.20
2019-02-23T05:56:12.789Z,5.80
2019-02-23T05:57:09.316Z,5.80
2019-02-23T05:58:09.373Z,5.90
2019-02-23T05:59:09.430Z,5.40
2019-02-23T06:00:09.472Z,5.30
2019-02-23T06:01:09.529Z,5.10
2019-02-23T06:02:09.578Z,4.90
2019-02-23T06:03:09.628Z,5.40
2019-02-23T06:04:09.681Z,5.10
2019-02-23T06:05:09.740Z,5.10
2019-02-23T06:06:09.784Z,4.90
2019-02-23T06:07:09.845Z,4.70
2019-02-23T06:08:09.889Z,5.80
2019-02-23T06:09:09.944Z,6.50
2019-02-23T06:10:10.393Z,5.50
2019-02-23T06:11:10.043Z,6.00
2019-02-23T06:12:10.095Z,5.60
2019-02-23T06:13:10.148Z,5.10
2019-02-23T06:14:10.199Z,5.50
2019-02-23T06:15:10.252Z,5.40
2019-02-23T06:16:10.303Z,5.50
2019-02-23T06:17:10.989Z,5.40
2019-02-23T06:18:10.413Z,5.30
2019-02-23T06:19:10.459Z,6.00
2019-02-23T06:20:10.515Z,5.30
2019-02-23T06:21:10.564Z,5.50
2019-02-23T06:22:10.617Z,5.50
2019-02-23T06:23:10.667Z,4.90
2019-02-23T06:24:10.718Z,4.60
2019-02-23T06:25:10.777Z,5.00
2019-02-23T06:26:10.823Z,5.70
2019-02-23T06:27:10.873Z,5.30
2019-02-23T06:28:10.925Z,5.80
2019-02-23T06:29:10.982Z,5.60
2019-02-23T06:30:11.029Z,5.30
2019-02-23T06:31:11.081Z,6.00
2019-02-23T06:32:11.133Z,5.70
2019-02-23T06:33:11.185Z,6.10
2019-02-23T06:34:16.074Z,5.50
2019-02-23T06:35:11.289Z,6.00
2019-02-23T06:36:11.340Z,5.70
2019-02-23T06:37:11.393Z,6.20
2019-02-23T06:38:12.214Z,5.10
2019-02-23T06:39:11.495Z,5.40
2019-02-23T06:40:11.549Z,5.70
2019-02-23T06:41:11.600Z,6.50
2019-02-23T06:42:11.652Z,6.20
2019-02-23T06:43:11.704Z,5.80
2019-02-23T06:44:11.755Z,5.80
2019-02-23T06:45:11.808Z,5.70
2019-02-23T06:46:11.861Z,6.10
2019-02-23T06:47:11.910Z,5.30
2019-02-23T06:48:11.964Z,5.20
2019-02-23T06:49:12.014Z,5.70
2019-02-23T06:50:12.092Z,5.10
2019-02-23T06:51:12.119Z,5.20
2019-02-23T06:52:12.171Z,5.60
2019-02-23T06:53:12.229Z,5.60
2019-02-23T06:54:12.273Z,5.70
2019-02-23T06:55:12.330Z,5.40
2019-02-23T06:56:12.380Z,4.90
2019-02-23T06:57:12.430Z,5.70
2019-02-23T06:58:12.482Z,5.20
2019-02-23T06:59:12.535Z,5.50
2019-02-23T07:00:12.587Z,6.20
2019-02-23T07:01:12.640Z,6.50
2019-02-23T07:02:12.691Z,6.20
2019-02-23T07:03:12.742Z,6.20
2019-02-23T07:04:12.801Z,6.70
2019-02-23T07:05:12.848Z,6.40
2019-02-23T07:06:12.901Z,6.20
2019-02-23T07:07:12.953Z,5.80
2019-02-23T07:08:13.005Z,6.20
2019-02-23T07:09:13.061Z,6.40
2019-02-23T07:10:13.108Z,6.20
2019-02-23T07:11:13.162Z,5.50
2019-02-23T07:12:13.214Z,6.00
2019-02-23T07:13:13.267Z,6.00
2019-02-23T07:14:13.318Z,6.20
2019-02-23T07:15:13.371Z,6.00
2019-02-23T07:16:13.424Z,6.30
2019-02-23T07:17:13.478Z,5.90
2019-02-23T07:18:13.529Z,6.50
2019-02-23T07:19:13.582Z,5.70
2019-02-23T07:20:13.637Z,6.00
2019-02-23T07:21:13.686Z,5.90
2019-02-23T07:22:15.854Z,6.10
2019-02-23T07:23:13.792Z,6.20
2019-02-23T07:24:13.845Z,6.10
2019-02-23T07:25:13.896Z,6.40
2019-02-23T07:26:13.948Z,5.90
2019-02-23T07:27:14.001Z,6.00
2019-02-23T07:28:14.053Z,6.20
2019-02-23T07:29:14.107Z,6.20
2019-02-23T07:30:14.158Z,6.00
2019-02-23T07:31:14.211Z,5.80
2019-02-23T07:32:14.263Z,5.70
2019-02-23T07:33:14.316Z,5.50
2019-02-23T07:34:15.620Z,6.00
2019-02-23T07:35:14.421Z,6.00
2019-02-23T07:36:14.474Z,6.50
2019-02-23T07:37:14.528Z,6.00
2019-02-23T07:38:14.580Z,6.20
2019-02-23T07:39:14.631Z,6.30
2019-02-23T07:40:14.692Z,6.30
2019-02-23T07:41:14.738Z,6.40
2019-02-23T07:42:14.789Z,5.90
2019-02-23T07:43:14.842Z,6.60
2019-02-23T07:44:14.895Z,5.80
2019-02-23T07:45:14.951Z,6.70
2019-02-23T07:46:15.001Z,6.40
2019-02-23T07:47:15.055Z,6.70
2019-02-23T07:48:15.109Z,6.30
2019-02-23T07:49:15.161Z,6.40
2019-02-23T07:50:15.212Z,6.60
2019-02-23T07:51:15.268Z,5.80
2019-02-23T07:52:25.738Z,6.00
2019-02-23T07:53:15.372Z,6.10
2019-02-23T07:54:15.424Z,5.80
2019-02-23T07:55:15.476Z,5.50
2019-02-23T07:56:15.529Z,6.30
2019-02-23T07:57:15.584Z,6.70
2019-02-23T07:58:15.635Z,6.50
2019-02-23T07:59:15.688Z,6.30
2019-02-23T08:00:15.743Z,6.30
2019-02-23T08:01:15.794Z,6.70
2019-02-23T08:02:15.846Z,7.00
2019-02-23T08:03:15.899Z,6.80
2019-02-23T08:04:15.953Z,6.60
2019-02-23T08:05:16.009Z,6.60
2019-02-23T08:06:16.058Z,6.90
2019-02-23T08:07:16.111Z,6.40
2019-02-23T08:08:16.169Z,6.30
2019-02-23T08:09:16.258Z,6.90
2019-02-23T08:10:16.270Z,6.70
2019-02-23T08:11:16.324Z,6.80
2019-02-23T08:12:16.376Z,6.60
2019-02-23T08:13:16.430Z,6.50
2019-02-23T08:14:16.483Z,6.40
2019-02-23T08:15:16.539Z,6.90
2019-02-23T08:16:16.590Z,6.20
2019-02-23T08:17:16.643Z,6.40
2019-02-23T08:18:16.696Z,6.70
2019-02-23T08:19:16.748Z,6.60
2019-02-23T08:20:16.805Z,6.40
2019-02-23T08:21:16.856Z,6.80
2019-02-23T08:22:16.908Z,6.60
2019-02-23T08:23:16.962Z,7.00
2019-02-23T08:24:17.015Z,6.30
2019-02-23T08:25:17.073Z,7.10
2019-02-23T08:26:17.121Z,6.40
2019-02-23T08:27:17.177Z,6.60
2019-02-23T08:28:17.228Z,6.50
2019-02-23T08:29:17.283Z,5.90
2019-02-23T08:30:17.335Z,6.60
2019-02-23T08:31:17.389Z,5.70
2019-02-23T08:32:17.445Z,6.40
2019-02-23T08:33:17.495Z,6.30
2019-02-23T08:34:17.549Z,6.40
2019-02-23T08:35:17.604Z,5.70
2019-02-23T08:36:17.665Z,6.00
2019-02-23T08:37:17.709Z,6.00
2019-02-23T08:38:17.762Z,7.10
2019-02-23T08:39:17.821Z,6.30
2019-02-23T08:40:17.870Z,6.60
2019-02-23T08:41:17.928Z,5.60
2019-02-23T08:42:17.978Z,6.10
2019-02-23T08:43:18.031Z,6.40
2019-02-23T08:44:18.086Z,7.10
2019-02-23T08:45:18.137Z,6.10
2019-02-23T08:46:18.190Z,6.30
2019-02-23T08:47:18.244Z,6.70
2019-02-23T08:48:18.298Z,6.70
2019-02-23T08:49:18.352Z,6.30
2019-02-23T08:50:18.411Z,6.10
2019-02-23T08:51:18.460Z,6.20
2019-02-23T08:52:18.513Z,6.60
2019-02-23T08:53:18.569Z,6.90
2019-02-23T08:54:18.623Z,6.00
2019-02-23T08:55:18.678Z,5.60
2019-02-23T08:56:18.728Z,6.40
2019-02-23T08:57:18.795Z,6.70
2019-02-23T08:58:18.836Z,6.70
2019-02-23T08:59:18.891Z,5.70
2019-02-23T09:00:18.943Z,6.10
2019-02-23T09:01:18.997Z,6.40
2019-02-23T09:02:19.087Z,6.50
2019-02-23T09:03:19.104Z,5.90
2019-02-23T09:04:19.159Z,6.20
2019-02-23T09:05:19.215Z,7.00
2019-02-23T09:06:19.266Z,7.10
2019-02-23T09:07:19.321Z,6.90
2019-02-23T09:08:19.377Z,6.60
2019-02-23T09:09:19.430Z,6.50
2019-02-23T09:10:19.483Z,6.50
2019-02-23T09:11:19.542Z,6.40
2019-02-23T09:12:19.603Z,7.00
2019-02-23T09:13:19.645Z,5.80
2019-02-23T09:14:19.699Z,5.80
2019-02-23T09:15:22.115Z,6.00
2019-02-23T09:16:19.807Z,6.50
2019-02-23T09:17:19.862Z,6.80
2019-02-23T09:18:19.914Z,6.60
2019-02-23T09:19:19.969Z,7.10
2019-02-23T09:20:28.551Z,6.80
2019-02-23T09:21:20.082Z,7.10
2019-02-23T09:22:20.132Z,7.00
2019-02-23T09:23:20.185Z,6.70
2019-02-23T09:24:20.239Z,6.10
2019-02-23T09:25:20.294Z,6.90
2019-02-23T09:26:20.349Z,7.30
2019-02-23T09:27:20.402Z,6.50
2019-02-23T09:28:20.456Z,7.00
2019-02-23T09:29:20.512Z,6.70
2019-02-23T09:30:20.566Z,6.70
2019-02-23T09:31:20.620Z,7.00
2019-02-23T09:32:20.678Z,6.90
2019-02-23T09:33:20.729Z,6.70
2019-02-23T09:34:20.781Z,6.70
2019-02-23T09:35:23.661Z,7.40
2019-02-23T09:36:20.890Z,7.20
2019-02-23T09:37:20.947Z,6.70
2019-02-23T09:38:21.022Z,7.50
2019-02-23T09:39:21.053Z,7.50
2019-02-23T09:40:21.108Z,6.40
2019-02-23T09:41:21.166Z,6.80
2019-02-23T09:42:21.216Z,6.50
2019-02-23T09:43:21.270Z,6.10
2019-02-23T09:44:21.323Z,6.40
2019-02-23T09:45:21.379Z,6.50
2019-02-23T09:46:21.433Z,6.90
2019-02-23T09:47:21.487Z,6.70
2019-02-23T09:48:21.541Z,6.90
2019-02-23T09:49:21.595Z,6.60
2019-02-23T09:50:21.650Z,6.70
2019-02-23T09:51:21.703Z,6.70
2019-02-23T09:52:21.759Z,6.40
2019-02-23T09:53:21.814Z,6.50
2019-02-23T09:54:21.868Z,6.90
2019-02-23T09:55:21.990Z,6.50
2019-02-23T09:56:21.977Z,7.40
2019-02-23T09:57:22.030Z,6.30
2019-02-23T09:58:22.086Z,7.20
2019-02-23T09:59:22.139Z,7.30
2019-02-23T10:00:22.195Z,7.30
2019-02-23T10:01:22.250Z,7.10
2019-02-23T10:02:22.303Z,6.90
2019-02-23T10:03:22.358Z,6.60
2019-02-23T10:04:22.413Z,6.10
2019-02-23T10:05:22.467Z,6.40
2019-02-23T10:06:22.522Z,6.80
2019-02-23T10:07:22.574Z,6.30
2019-02-23T10:08:22.630Z,6.50
2019-02-23T10:09:22.685Z,6.60
2019-02-23T10:10:22.750Z,6.80
2019-02-23T10:11:22.796Z,6.70
2019-02-23T10:12:22.847Z,6.30
2019-02-23T10:13:22.902Z,6.50
2019-02-23T10:14:22.956Z,6.70
2019-02-23T10:15:23.011Z,6.60
2019-02-23T10:16:23.065Z,6.60
2019-02-23T10:17:23.121Z,6.70
2019-02-23T10:18:23.174Z,6.30
2019-02-23T10:19:23.229Z,6.50
2019-02-23T10:20:23.284Z,6.90
2019-02-23T10:21:23.341Z,6.50
2019-02-23T10:22:23.392Z,6.90
2019-02-23T10:23:23.447Z,6.50
2019-02-23T10:24:23.501Z,7.10
2019-02-23T10:25:23.557Z,6.80
2019-02-23T10:26:23.610Z,7.10
2019-02-23T10:27:23.667Z,6.80
2019-02-23T10:28:23.719Z,6.80
2019-02-23T10:29:23.774Z,6.70
2019-02-23T10:30:23.829Z,6.60
2019-02-23T10:31:23.885Z,6.70
2019-02-23T10:32:23.938Z,6.50
2019-02-23T10:33:23.993Z,6.50
2019-02-23T10:34:24.683Z,7.30
2019-02-23T10:35:24.102Z,7.40
2019-02-23T10:36:24.156Z,6.60
2019-02-23T10:37:24.211Z,7.30
2019-02-23T10:38:24.265Z,6.70
2019-02-23T10:39:24.321Z,7.10
2019-02-23T10:40:24.375Z,7.10
2019-02-23T10:41:24.429Z,6.60
2019-02-23T10:42:24.484Z,6.80
2019-02-23T10:43:24.539Z,7.00
2019-02-23T10:44:24.594Z,7.10
2019-02-23T10:45:24.649Z,6.00
2019-02-23T10:46:24.703Z,6.90
2019-02-23T10:47:24.826Z,6.10
2019-02-23T10:48:24.813Z,6.80
2019-02-23T10:49:24.868Z,6.80
2019-02-23T10:50:24.923Z,6.30
2019-02-23T10:51:24.977Z,6.60
2019-02-23T10:52:25.036Z,6.20
2019-02-23T10:53:32.552Z,6.50
2019-02-23T10:54:25.152Z,6.60
2019-02-23T10:55:25.196Z,6.50
2019-02-23T10:56:25.258Z,7.00
2019-02-23T10:57:25.308Z,6.70
2019-02-23T10:58:25.363Z,6.40
2019-02-23T10:59:25.418Z,6.80
2019-02-23T11:00:25.478Z,7.20
2019-02-23T11:01:25.531Z,6.80
2019-02-23T11:02:25.583Z,6.60
2019-02-23T11:03:25.639Z,6.30
2019-02-23T11:04:25.694Z,6.50
2019-02-23T11:05:25.752Z,6.50
2019-02-23T11:06:25.806Z,6.60
2019-02-23T11:07:25.859Z,5.90
2019-02-23T11:08:25.915Z,6.70
2019-02-23T11:09:25.970Z,6.20
2019-02-23T11:10:26.025Z,7.00
2019-02-23T11:11:26.080Z,6.70
2019-02-23T11:12:26.136Z,6.10
2019-02-23T11:13:26.197Z,5.80
2019-02-23T11:14:26.247Z,6.20
2019-02-23T11:15:26.304Z,6.30
2019-02-23T11:16:26.357Z,6.00
2019-02-23T11:17:26.415Z,6.10
2019-02-23T11:18:26.470Z,6.50
2019-02-23T11:19:26.527Z,6.30
2019-02-23T11:20:26.579Z,6.00
2019-02-23T11:21:26.637Z,5.80
2019-02-23T11:22:26.691Z,6.40
2019-02-23T11:23:26.746Z,6.10
2019-02-23T11:24:26.803Z,6.50
2019-02-23T11:25:26.857Z,6.00
2019-02-23T11:26:26.914Z,6.20
2019-02-23T11:27:26.970Z,5.90
2019-02-23T11:28:27.026Z,5.80
2019-02-23T11:29:27.082Z,6.60
2019-02-23T11:30:27.137Z,5.60
2019-02-23T11:31:27.193Z,6.00
2019-02-23T11:32:27.250Z,6.10
2019-02-23T11:33:27.305Z,5.80
2019-02-23T11:34:27.360Z,6.00
2019-02-23T11:35:27.418Z,5.10
2019-02-23T11:36:27.477Z,5.70
2019-02-23T11:37:27.530Z,6.00
2019-02-23T11:38:27.587Z,5.80
2019-02-23T11:39:27.644Z,6.80
2019-02-23T11:40:27.705Z,6.40
2019-02-23T11:41:27.758Z,6.50
2019-02-23T11:42:27.815Z,5.90
2019-02-23T11:43:27.872Z,6.10
2019-02-23T11:44:27.931Z,5.50
2019-02-23T11:45:27.988Z,6.10
2019-02-23T11:46:28.045Z,6.20
2019-02-23T11:47:28.103Z,6.20
2019-02-23T11:48:28.162Z,6.40
2019-02-23T11:49:28.221Z,5.80
2019-02-23T11:50:28.275Z,6.00
2019-02-23T11:51:28.334Z,6.50
2019-02-23T11:52:28.392Z,5.80
2019-02-23T11:53:28.451Z,5.30
2019-02-23T11:54:28.508Z,6.00
2019-02-23T11:55:28.566Z,5.20
2019-02-23T11:56:28.702Z,5.50
2019-02-23T11:57:28.683Z,6.00
2019-02-23T11:58:28.741Z,5.80
2019-02-23T11:59:28.800Z,5.90
2019-02-23T12:00:28.858Z,5.90
2019-02-23T12:01:28.919Z,6.10
2019-02-23T12:02:28.975Z,6.30
2019-02-23T12:03:29.084Z,5.20
2019-02-23T12:04:29.092Z,5.80
2019-02-23T12:05:29.151Z,5.90
2019-02-23T12:06:29.210Z,5.80
2019-02-23T12:07:29.272Z,5.70
2019-02-23T12:08:29.329Z,5.30
2019-02-23T12:09:29.387Z,5.40
2019-02-23T12:10:29.447Z,5.60
2019-02-23T12:11:29.506Z,5.40
2019-02-23T12:12:29.564Z,5.70
2019-02-23T12:13:29.624Z,5.70
2019-02-23T12:14:29.683Z,5.70
2019-02-23T12:15:29.742Z,5.70
2019-02-23T12:16:29.802Z,6.10
2019-02-23T12:17:29.864Z,5.50
2019-02-23T12:18:29.920Z,5.60
2019-02-23T12:19:29.979Z,5.10
2019-02-23T12:20:30.040Z,5.20
2019-02-23T12:21:30.098Z,5.30
2019-02-23T12:22:30.159Z,5.90
2019-02-23T12:23:30.218Z,5.70
2019-02-23T12:24:30.278Z,5.50
2019-02-23T12:25:30.338Z,5.30
2019-02-23T12:26:30.397Z,5.60
2019-02-23T12:27:30.457Z,5.40
2019-02-23T12:28:30.517Z,5.20
2019-02-23T12:29:30.576Z,5.30
2019-02-23T12:33:11.501Z,5.50
2019-02-23T12:34:11.561Z,6.00
2019-02-23T12:35:11.621Z,5.30
2019-02-23T12:36:11.679Z,5.20
2019-02-23T12:37:11.741Z,5.50
2019-02-23T12:38:11.800Z,5.40
2019-02-23T12:39:11.860Z,5.20
2019-02-23T12:40:11.922Z,5.50
2019-02-23T12:41:11.980Z,5.40
2019-02-23T12:42:12.039Z,5.60
2019-02-23T12:43:12.100Z,5.40
2019-02-23T12:44:12.159Z,5.60
2019-02-23T12:45:12.219Z,5.30
2019-02-23T12:46:12.279Z,5.60
2019-02-23T12:47:12.339Z,5.40
2019-02-23T12:48:12.400Z,5.20
2019-02-23T12:49:12.458Z,5.50
2019-02-23T12:50:12.521Z,5.80
2019-02-23T12:51:12.578Z,4.90
2019-02-23T12:52:12.707Z,5.50
2019-02-23T12:53:12.698Z,5.50
2019-02-23T12:54:16.756Z,4.90
2019-02-23T12:55:12.819Z,5.00
2019-02-23T12:56:12.877Z,4.90
2019-02-23T12:57:12.938Z,5.30
2019-02-23T12:58:12.997Z,5.10
2019-02-23T12:59:13.057Z,5.80
2019-02-23T13:00:13.117Z,4.90
2019-02-23T13:01:13.177Z,4.70
2019-02-23T13:02:13.237Z,5.30
2019-02-23T13:03:13.301Z,4.90
2019-02-23T13:04:13.356Z,4.70
2019-02-23T13:05:13.416Z,4.50
2019-02-23T13:06:13.477Z,4.60
2019-02-23T13:07:13.538Z,4.90
2019-02-23T13:08:13.597Z,4.90
2019-02-23T13:09:13.909Z,4.70
2019-02-23T13:10:13.719Z,3.90
2019-02-23T13:11:13.778Z,4.00
2019-02-23T13:12:13.841Z,4.90
2019-02-23T13:13:13.904Z,4.50
2019-02-23T13:14:13.959Z,4.20
2019-02-23T13:15:14.018Z,4.50
2019-02-23T13:16:14.079Z,3.90
2019-02-23T13:17:14.141Z,4.10
2019-02-23T13:18:14.200Z,4.10
2019-02-23T13:19:14.261Z,3.50
2019-02-23T13:20:14.318Z,4.00
2019-02-23T13:21:14.380Z,4.00
2019-02-23T13:22:14.440Z,3.80